Daily Tabular Data
[Select Refresh to Update]


6/3/20
Time         Wind Dir   Wind Spd  Wind Gust     Hum In   Humidity    Temp In       Temp  Raw Barom   Tot Rain Wind Chill Heat Ix In Heat Index  Dew Point  DailyRain   HourRain   RainRate
                            mph        mph          %          %         F         F         in         in         F         F         F         F         in         in      in/hr
12:00am           295          0          2         57         91       75.2       64.7      29.11      15.90       64.7       76.7       70.5       62.0       0.00       0.00      0.000
12:30am           342          1          4         57         90       75.1       64.3      29.10      15.90       64.3       76.6       69.9       61.3       0.00       0.00      0.000
1:00am            342          0          3         57         87       75.1       65.1      29.07      15.90       65.1       76.6       70.3       61.1       0.00       0.00      0.000
1:30am            342          0          0         55         75       75.0       67.0      29.06      15.90       67.0       76.3       70.6       58.8       0.00       0.00      0.000
2:00am            342          0          2         51         61       74.9       68.7      29.04      15.90       68.7       75.8       70.6       54.7       0.00       0.00      0.000
2:30am            343          0          3         51         76       75.0       67.3      29.04      15.90       67.3       75.9       71.0       59.5       0.00       0.00      0.000
3:00am            333          0          0         53         86       74.9       65.2      29.05      15.90       65.2       76.0       70.3       60.9       0.00       0.00      0.000
3:30am            338          0          1         54         86       74.8       65.0      29.04      15.90       65.0       76.0       70.1       60.7       0.00       0.00      0.000
4:00am            279          2          6         55         88       74.8       64.2      29.04      15.90       64.2       76.1       69.5       60.6       0.00       0.00      0.000
4:30am            317          0          3         56         89       74.6       63.5      29.04      15.90       63.5       76.0       69.0       60.2       0.00       0.00      0.000
5:00am            329          0          4         56         89       74.4       62.9      29.04      15.90       62.9       75.8       68.4       59.6       0.00       0.00      0.000
5:30am            331          0          0         56         90       74.2       63.6      29.04      15.90       63.6       75.6       69.2       60.6       0.00       0.00      0.000
6:00am            331          0          1         56         91       74.0       61.7      29.05      15.90       61.7       75.4       67.5       59.1       0.00       0.00      0.000
6:30am            336          1          1         56         91       73.8       62.1      29.06      15.90       62.1       75.2       67.9       59.4       0.00       0.00      0.000
7:00am            341          0          2         56         90       73.7       64.5      29.06      15.90       64.5       75.1       70.1       61.5       0.00       0.00      0.000
7:30am            304          0          4         57         83       73.8       66.0      29.06      15.90       66.0       75.3       70.6       60.7       0.00       0.00      0.000
8:00am            336          0          1         56         77       74.1       70.4      29.06      15.90       70.4       75.5       74.2       62.9       0.00       0.00      0.000
8:30am            314          0          1         56         71       74.5       72.0      29.07      15.90       72.0       75.9       75.1       62.1       0.00       0.00      0.000
9:00am            194          0          2         56         67       75.0       75.7      29.07      15.90       75.7       76.4       78.3       64.0       0.00       0.00      0.000
9:30am            304          0          5         56         62       75.5       76.9      29.07      15.90       76.9       76.9       78.9       62.9       0.00       0.00      0.000
10:00am           285          2          5         56         58       75.9       78.9      29.06      15.90       78.9       77.3       80.5       62.9       0.00       0.00      0.000
10:30am           282          1          7         56         53       76.3       81.9      29.06      15.90       81.9       77.7       83.1       63.1       0.00       0.00      0.000
11:00am           290          0          9         55         52       76.6       83.0      29.06      15.90       83.0       77.9       84.3       63.6       0.00       0.00      0.000
11:30am           288          5          9         55         45       77.1       85.7      29.05      15.90       85.7       78.4       86.2       61.9       0.00       0.00      0.000
12:00pm           268          5         10         55         36       77.6       88.0      29.04      15.90       88.0       78.9       86.9       57.7       0.00       0.00      0.000
1:00pm            252          5         12         55         31       78.3       91.3      29.02      15.90       91.3       79.6       89.7       56.5       0.00       0.00      0.000
1:30pm            273          4         13         54         36       78.4       91.5      29.01      15.90       91.5       79.6       91.5       60.8       0.00       0.00      0.000
2:00pm            258          9         14         53         38       77.2       90.7      29.00      15.90       90.7       78.3       91.0       61.6       0.00       0.00      0.000
2:30pm            273          6         14         52         35       76.7       90.6      29.00      15.90       90.6       77.7       89.9       59.2       0.00       0.00      0.000
3:00pm            279          6         14         50         33       76.2       89.9      28.99      15.90       89.9       77.0       88.5       57.0       0.00       0.00      0.000
3:30pm            278          5         13         48         33       73.6       90.3      28.98      15.90       90.3       74.2       89.0       57.3       0.00       0.00      0.000
4:00pm            267          3         10         49         35       72.8       91.4      28.98      15.90       91.4       73.5       91.0       59.9       0.00       0.00      0.000
4:30pm            256          5         11         47         32       76.2       90.5      28.96      15.90       90.5       76.7       89.0       56.6       0.00       0.00      0.000
5:00pm            263          3         10         47         30       74.4       90.5      28.96      15.90       90.5       74.9       88.5       54.9       0.00       0.00      0.000
5:30pm            239          2          8         47         27       73.5       89.9      28.96      15.90       89.9       74.0       87.2       51.5       0.00       0.00      0.000